sensor_id;sensor_type;location;lat;lon;timestamp;P1;durP1;ratioP1;P2;durP2;ratioP2
21943;SDS011;11136;48.778;9.126;2022-11-15T00:01:47;3.85;;;1.88;;
21943;SDS011;11136;48.778;9.126;2022-11-15T00:04:12;3.58;;;2.03;;
21943;SDS011;11136;48.778;9.126;2022-11-15T00:06:38;4.68;;;2.95;;
21943;SDS011;11136;48.778;9.126;2022-11-15T00:09:03;5.93;;;2.72;;
21943;SDS011;11136;48.778;9.126;2022-11-15T00:11:29;4.07;;;2.10;;
21943;SDS011;11136;48.778;9.126;2022-11-15T00:13:55;5.97;;;2.22;;
21943;SDS011;11136;48.778;9.126;2022-11-15T00:16:21;3.47;;;2.08;;
21943;SDS011;11136;48.778;9.126;2022-11-15T00:18:47;3.65;;;1.98;;
21943;SDS011;11136;48.778;9.126;2022-11-15T00:21:15;9.15;;;2.60;;
21943;SDS011;11136;48.778;9.126;2022-11-15T00:23:42;3.67;;;1.70;;
21943;SDS011;11136;48.778;9.126;2022-11-15T00:26:10;4.93;;;2.20;;
21943;SDS011;11136;48.778;9.126;2022-11-15T00:28:37;4.88;;;1.65;;
21943;SDS011;11136;48.778;9.126;2022-11-15T00:31:03;5.95;;;1.85;;
21943;SDS011;11136;48.778;9.126;2022-11-15T00:33:31;4.45;;;2.42;;
21943;SDS011;11136;48.778;9.126;2022-11-15T00:36:32;4.72;;;1.83;;
21943;SDS011;11136;48.778;9.126;2022-11-15T00:38:48;5.05;;;2.33;;
21943;SDS011;11136;48.778;9.126;2022-11-15T00:41:14;6.78;;;3.25;;
21943;SDS011;11136;48.778;9.126;2022-11-15T00:43:39;7.35;;;4.38;;
21943;SDS011;11136;48.778;9.126;2022-11-15T00:46:07;4.65;;;3.03;;
21943;SDS011;11136;48.778;9.126;2022-11-15T00:48:34;5.60;;;3.33;;
21943;SDS011;11136;48.778;9.126;2022-11-15T00:51:00;9.50;;;3.17;;
21943;SDS011;11136;48.778;9.126;2022-11-15T00:53:25;8.60;;;5.18;;
21943;SDS011;11136;48.778;9.126;2022-11-15T00:55:51;7.60;;;3.60;;
21943;SDS011;11136;48.778;9.126;2022-11-15T00:58:17;8.93;;;4.13;;
21943;SDS011;11136;48.778;9.126;2022-11-15T01:00:42;6.38;;;4.18;;
21943;SDS011;11136;48.778;9.126;2022-11-15T01:03:08;11.70;;;6.75;;
21943;SDS011;11136;48.778;9.126;2022-11-15T01:05:33;9.60;;;3.90;;
21943;SDS011;11136;48.778;9.126;2022-11-15T01:08:01;5.43;;;3.50;;
21943;SDS011;11136;48.778;9.126;2022-11-15T01:10:27;4.88;;;3.00;;
21943;SDS011;11136;48.778;9.126;2022-11-15T01:12:52;8.82;;;2.50;;
21943;SDS011;11136;48.778;9.126;2022-11-15T01:15:18;9.05;;;2.65;;
21943;SDS011;11136;48.778;9.126;2022-11-15T01:17:43;7.07;;;2.58;;
21943;SDS011;11136;48.778;9.126;2022-11-15T01:20:09;2.88;;;1.90;;
21943;SDS011;11136;48.778;9.126;2022-11-15T01:22:35;4.40;;;1.90;;
21943;SDS011;11136;48.778;9.126;2022-11-15T01:25:00;10.20;;;2.17;;
21943;SDS011;11136;48.778;9.126;2022-11-15T01:27:26;2.47;;;2.15;;
21943;SDS011;11136;48.778;9.126;2022-11-15T01:29:51;3.35;;;2.05;;
21943;SDS011;11136;48.778;9.126;2022-11-15T01:32:17;7.47;;;2.60;;
21943;SDS011;11136;48.778;9.126;2022-11-15T01:34:43;5.85;;;1.90;;
21943;SDS011;11136;48.778;9.126;2022-11-15T01:37:08;6.68;;;1.60;;
21943;SDS011;11136;48.778;9.126;2022-11-15T01:39:34;2.72;;;1.80;;
21943;SDS011;11136;48.778;9.126;2022-11-15T01:42:00;2.00;;;1.60;;
21943;SDS011;11136;48.778;9.126;2022-11-15T01:47:01;4.43;;;1.90;;
21943;SDS011;11136;48.778;9.126;2022-11-15T01:49:30;2.65;;;1.95;;
21943;SDS011;11136;48.778;9.126;2022-11-15T01:51:58;2.72;;;1.98;;
21943;SDS011;11136;48.778;9.126;2022-11-15T01:54:26;2.53;;;2.08;;
21943;SDS011;11136;48.778;9.126;2022-11-15T01:56:57;13.95;;;2.30;;
21943;SDS011;11136;48.778;9.126;2022-11-15T01:59:27;2.15;;;1.92;;
21943;SDS011;11136;48.778;9.126;2022-11-15T02:01:53;2.53;;;1.80;;
21943;SDS011;11136;48.778;9.126;2022-11-15T02:04:20;4.15;;;1.75;;
21943;SDS011;11136;48.778;9.126;2022-11-15T02:06:50;4.70;;;1.73;;
21943;SDS011;11136;48.778;9.126;2022-11-15T02:09:16;5.57;;;2.28;;
21943;SDS011;11136;48.778;9.126;2022-11-15T02:11:42;2.85;;;1.50;;
21943;SDS011;11136;48.778;9.126;2022-11-15T02:14:10;3.70;;;1.88;;
21943;SDS011;11136;48.778;9.126;2022-11-15T02:19:20;4.68;;;1.50;;
21943;SDS011;11136;48.778;9.126;2022-11-15T02:27:36;3.65;;;1.95;;
21943;SDS011;11136;48.778;9.126;2022-11-15T02:33:15;4.22;;;1.88;;
21943;SDS011;11136;48.778;9.126;2022-11-15T02:41:35;4.85;;;1.50;;
21943;SDS011;11136;48.778;9.126;2022-11-15T02:44:31;4.97;;;1.95;;
21943;SDS011;11136;48.778;9.126;2022-11-15T02:47:04;3.17;;;1.80;;
21943;SDS011;11136;48.778;9.126;2022-11-15T02:49:53;1.83;;;1.48;;
21943;SDS011;11136;48.778;9.126;2022-11-15T02:52:22;2.85;;;1.40;;
21943;SDS011;11136;48.778;9.126;2022-11-15T02:54:56;6.57;;;1.88;;
21943;SDS011;11136;48.778;9.126;2022-11-15T02:57:31;4.63;;;1.63;;
21943;SDS011;11136;48.778;9.126;2022-11-15T03:02:57;3.58;;;1.67;;
21943;SDS011;11136;48.778;9.126;2022-11-15T03:12:04;4.60;;;1.65;;
21943;SDS011;11136;48.778;9.126;2022-11-15T03:14:41;3.40;;;1.40;;
21943;SDS011;11136;48.778;9.126;2022-11-15T03:17:19;3.13;;;1.50;;
21943;SDS011;11136;48.778;9.126;2022-11-15T03:20:10;3.55;;;1.40;;
21943;SDS011;11136;48.778;9.126;2022-11-15T03:22:40;3.63;;;1.42;;
21943;SDS011;11136;48.778;9.126;2022-11-15T03:25:09;8.85;;;1.50;;
21943;SDS011;11136;48.778;9.126;2022-11-15T03:27:40;2.90;;;1.80;;
21943;SDS011;11136;48.778;9.126;2022-11-15T03:30:11;3.47;;;1.70;;
21943;SDS011;11136;48.778;9.126;2022-11-15T03:32:40;6.47;;;1.90;;
21943;SDS011;11136;48.778;9.126;2022-11-15T03:35:14;4.35;;;1.88;;
21943;SDS011;11136;48.778;9.126;2022-11-15T03:40:37;2.50;;;1.73;;
21943;SDS011;11136;48.778;9.126;2022-11-15T03:45:51;2.70;;;1.67;;
21943;SDS011;11136;48.778;9.126;2022-11-15T03:48:25;2.28;;;1.75;;
21943;SDS011;11136;48.778;9.126;2022-11-15T03:50:55;2.63;;;1.42;;
21943;SDS011;11136;48.778;9.126;2022-11-15T03:53:21;4.55;;;1.70;;
21943;SDS011;11136;48.778;9.126;2022-11-15T03:55:46;5.32;;;1.70;;
21943;SDS011;11136;48.778;9.126;2022-11-15T03:58:12;3.47;;;1.92;;
21943;SDS011;11136;48.778;9.126;2022-11-15T04:00:37;1.85;;;1.50;;
21943;SDS011;11136;48.778;9.126;2022-11-15T04:03:03;2.20;;;1.55;;
21943;SDS011;11136;48.778;9.126;2022-11-15T04:05:28;2.00;;;1.77;;
21943;SDS011;11136;48.778;9.126;2022-11-15T04:07:54;1.60;;;1.50;;
21943;SDS011;11136;48.778;9.126;2022-11-15T04:10:19;2.67;;;1.60;;
21943;SDS011;11136;48.778;9.126;2022-11-15T04:12:45;5.10;;;1.92;;
21943;SDS011;11136;48.778;9.126;2022-11-15T04:15:20;3.75;;;1.70;;
21943;SDS011;11136;48.778;9.126;2022-11-15T04:17:48;4.90;;;1.75;;
21943;SDS011;11136;48.778;9.126;2022-11-15T04:20:16;5.68;;;1.60;;
21943;SDS011;11136;48.778;9.126;2022-11-15T04:25:58;5.45;;;1.83;;
21943;SDS011;11136;48.778;9.126;2022-11-15T04:28:25;3.80;;;1.58;;
21943;SDS011;11136;48.778;9.126;2022-11-15T04:30:51;3.25;;;1.30;;
21943;SDS011;11136;48.778;9.126;2022-11-15T04:33:17;3.38;;;1.73;;
21943;SDS011;11136;48.778;9.126;2022-11-15T04:35:43;3.00;;;1.40;;
21943;SDS011;11136;48.778;9.126;2022-11-15T04:38:29;1.52;;;1.35;;
21943;SDS011;11136;48.778;9.126;2022-11-15T04:40:54;5.78;;;2.10;;
21943;SDS011;11136;48.778;9.126;2022-11-15T04:43:20;2.13;;;1.40;;
21943;SDS011;11136;48.778;9.126;2022-11-15T04:45:46;2.35;;;1.50;;
21943;SDS011;11136;48.778;9.126;2022-11-15T04:48:11;4.53;;;1.70;;
21943;SDS011;11136;48.778;9.126;2022-11-15T04:50:37;2.38;;;1.50;;
21943;SDS011;11136;48.778;9.126;2022-11-15T04:53:02;2.60;;;1.50;;
21943;SDS011;11136;48.778;9.126;2022-11-15T04:55:28;3.45;;;1.80;;
21943;SDS011;11136;48.778;9.126;2022-11-15T04:57:57;1.95;;;1.73;;
21943;SDS011;11136;48.778;9.126;2022-11-15T05:00:24;1.73;;;1.55;;
21943;SDS011;11136;48.778;9.126;2022-11-15T05:02:49;3.60;;;1.90;;
21943;SDS011;11136;48.778;9.126;2022-11-15T05:05:34;6.97;;;1.52;;
21943;SDS011;11136;48.778;9.126;2022-11-15T05:07:59;2.90;;;1.65;;
21943;SDS011;11136;48.778;9.126;2022-11-15T05:10:25;2.55;;;1.40;;
21943;SDS011;11136;48.778;9.126;2022-11-15T05:12:50;4.45;;;1.58;;
21943;SDS011;11136;48.778;9.126;2022-11-15T05:15:16;4.10;;;1.95;;
21943;SDS011;11136;48.778;9.126;2022-11-15T05:17:41;2.70;;;1.60;;
21943;SDS011;11136;48.778;9.126;2022-11-15T05:20:07;4.93;;;1.60;;
21943;SDS011;11136;48.778;9.126;2022-11-15T05:22:33;3.70;;;1.80;;
21943;SDS011;11136;48.778;9.126;2022-11-15T05:24:59;4.97;;;2.08;;
21943;SDS011;11136;48.778;9.126;2022-11-15T05:27:24;4.78;;;1.83;;
21943;SDS011;11136;48.778;9.126;2022-11-15T05:29:50;3.50;;;1.77;;
21943;SDS011;11136;48.778;9.126;2022-11-15T05:32:15;4.32;;;1.55;;
21943;SDS011;11136;48.778;9.126;2022-11-15T05:34:42;4.00;;;1.70;;
21943;SDS011;11136;48.778;9.126;2022-11-15T05:37:08;3.08;;;1.52;;
21943;SDS011;11136;48.778;9.126;2022-11-15T05:39:34;2.25;;;1.30;;
21943;SDS011;11136;48.778;9.126;2022-11-15T05:42:13;4.53;;;1.83;;
21943;SDS011;11136;48.778;9.126;2022-11-15T05:44:43;3.63;;;1.87;;
21943;SDS011;11136;48.778;9.126;2022-11-15T05:47:12;3.15;;;1.70;;
21943;SDS011;11136;48.778;9.126;2022-11-15T05:49:42;3.58;;;1.58;;
21943;SDS011;11136;48.778;9.126;2022-11-15T05:52:09;4.13;;;2.00;;
21943;SDS011;11136;48.778;9.126;2022-11-15T05:54:38;7.82;;;1.92;;
21943;SDS011;11136;48.778;9.126;2022-11-15T05:57:04;3.40;;;1.50;;
21943;SDS011;11136;48.778;9.126;2022-11-15T05:59:30;2.95;;;1.95;;
21943;SDS011;11136;48.778;9.126;2022-11-15T06:01:57;5.47;;;2.00;;
21943;SDS011;11136;48.778;9.126;2022-11-15T06:04:23;2.38;;;1.27;;
21943;SDS011;11136;48.778;9.126;2022-11-15T06:06:48;3.70;;;1.75;;
21943;SDS011;11136;48.778;9.126;2022-11-15T06:09:14;1.92;;;1.60;;
21943;SDS011;11136;48.778;9.126;2022-11-15T06:11:39;2.15;;;1.65;;
21943;SDS011;11136;48.778;9.126;2022-11-15T06:14:05;4.18;;;1.83;;
21943;SDS011;11136;48.778;9.126;2022-11-15T06:16:31;3.55;;;1.83;;
21943;SDS011;11136;48.778;9.126;2022-11-15T06:18:56;3.58;;;1.67;;
21943;SDS011;11136;48.778;9.126;2022-11-15T06:21:22;2.15;;;1.75;;
21943;SDS011;11136;48.778;9.126;2022-11-15T06:23:48;1.58;;;1.48;;
21943;SDS011;11136;48.778;9.126;2022-11-15T06:26:14;8.10;;;2.08;;
21943;SDS011;11136;48.778;9.126;2022-11-15T06:28:39;3.97;;;2.10;;
21943;SDS011;11136;48.778;9.126;2022-11-15T06:31:06;3.38;;;1.67;;
21943;SDS011;11136;48.778;9.126;2022-11-15T06:33:33;4.55;;;2.10;;
21943;SDS011;11136;48.778;9.126;2022-11-15T06:36:00;2.10;;;1.60;;
21943;SDS011;11136;48.778;9.126;2022-11-15T06:38:30;3.15;;;2.00;;
21943;SDS011;11136;48.778;9.126;2022-11-15T06:41:00;4.57;;;2.42;;
21943;SDS011;11136;48.778;9.126;2022-11-15T06:43:30;4.97;;;2.20;;
21943;SDS011;11136;48.778;9.126;2022-11-15T06:45:57;2.67;;;1.67;;
21943;SDS011;11136;48.778;9.126;2022-11-15T06:48:24;4.43;;;1.80;;
21943;SDS011;11136;48.778;9.126;2022-11-15T06:50:54;2.50;;;1.67;;
21943;SDS011;11136;48.778;9.126;2022-11-15T06:53:22;4.07;;;2.38;;
21943;SDS011;11136;48.778;9.126;2022-11-15T06:55:48;3.25;;;2.08;;
21943;SDS011;11136;48.778;9.126;2022-11-15T06:58:14;4.38;;;2.63;;
21943;SDS011;11136;48.778;9.126;2022-11-15T07:00:40;3.35;;;2.53;;
21943;SDS011;11136;48.778;9.126;2022-11-15T07:03:05;2.75;;;2.33;;
21943;SDS011;11136;48.778;9.126;2022-11-15T07:05:31;6.07;;;2.70;;
21943;SDS011;11136;48.778;9.126;2022-11-15T07:07:57;4.80;;;2.42;;
21943;SDS011;11136;48.778;9.126;2022-11-15T07:10:23;6.30;;;2.83;;
21943;SDS011;11136;48.778;9.126;2022-11-15T07:12:50;4.43;;;2.80;;
21943;SDS011;11136;48.778;9.126;2022-11-15T07:15:17;5.25;;;2.90;;
21943;SDS011;11136;48.778;9.126;2022-11-15T07:17:44;5.32;;;3.38;;
21943;SDS011;11136;48.778;9.126;2022-11-15T07:20:10;3.05;;;2.33;;
21943;SDS011;11136;48.778;9.126;2022-11-15T07:22:38;2.63;;;1.92;;
21943;SDS011;11136;48.778;9.126;2022-11-15T07:25:04;3.45;;;2.42;;
21943;SDS011;11136;48.778;9.126;2022-11-15T07:27:29;3.28;;;2.40;;
21943;SDS011;11136;48.778;9.126;2022-11-15T07:29:55;3.72;;;2.30;;
21943;SDS011;11136;48.778;9.126;2022-11-15T07:32:20;3.60;;;2.10;;
21943;SDS011;11136;48.778;9.126;2022-11-15T07:34:46;5.82;;;1.88;;
21943;SDS011;11136;48.778;9.126;2022-11-15T07:37:11;6.60;;;2.08;;
21943;SDS011;11136;48.778;9.126;2022-11-15T07:39:37;4.80;;;1.90;;
21943;SDS011;11136;48.778;9.126;2022-11-15T07:42:03;2.60;;;1.95;;
21943;SDS011;11136;48.778;9.126;2022-11-15T07:44:47;5.55;;;2.33;;
21943;SDS011;11136;48.778;9.126;2022-11-15T07:47:12;7.18;;;2.00;;
21943;SDS011;11136;48.778;9.126;2022-11-15T07:49:38;4.43;;;1.73;;
21943;SDS011;11136;48.778;9.126;2022-11-15T07:52:04;2.90;;;1.92;;
21943;SDS011;11136;48.778;9.126;2022-11-15T07:54:29;4.15;;;2.17;;
21943;SDS011;11136;48.778;9.126;2022-11-15T07:56:55;7.47;;;2.47;;
21943;SDS011;11136;48.778;9.126;2022-11-15T07:59:21;4.97;;;2.28;;
21943;SDS011;11136;48.778;9.126;2022-11-15T08:01:46;3.30;;;2.13;;
21943;SDS011;11136;48.778;9.126;2022-11-15T08:04:12;3.40;;;1.77;;
21943;SDS011;11136;48.778;9.126;2022-11-15T08:06:38;3.08;;;1.58;;
21943;SDS011;11136;48.778;9.126;2022-11-15T08:09:03;2.85;;;1.70;;
21943;SDS011;11136;48.778;9.126;2022-11-15T08:11:29;3.08;;;2.45;;
21943;SDS011;11136;48.778;9.126;2022-11-15T08:13:54;4.75;;;1.88;;
21943;SDS011;11136;48.778;9.126;2022-11-15T08:16:20;3.25;;;1.63;;
21943;SDS011;11136;48.778;9.126;2022-11-15T08:18:46;7.50;;;1.65;;
21943;SDS011;11136;48.778;9.126;2022-11-15T08:21:12;4.80;;;1.52;;
21943;SDS011;11136;48.778;9.126;2022-11-15T08:23:42;2.53;;;1.73;;
21943;SDS011;11136;48.778;9.126;2022-11-15T08:26:08;4.10;;;1.30;;
21943;SDS011;11136;48.778;9.126;2022-11-15T08:28:34;3.63;;;1.85;;
21943;SDS011;11136;48.778;9.126;2022-11-15T08:30:59;2.63;;;1.30;;
21943;SDS011;11136;48.778;9.126;2022-11-15T08:33:25;2.25;;;1.33;;
21943;SDS011;11136;48.778;9.126;2022-11-15T08:35:50;2.28;;;1.58;;
21943;SDS011;11136;48.778;9.126;2022-11-15T08:38:16;3.25;;;1.20;;
21943;SDS011;11136;48.778;9.126;2022-11-15T08:40:42;2.08;;;1.25;;
21943;SDS011;11136;48.778;9.126;2022-11-15T08:43:07;2.83;;;1.50;;
21943;SDS011;11136;48.778;9.126;2022-11-15T08:45:33;4.85;;;1.50;;
21943;SDS011;11136;48.778;9.126;2022-11-15T08:48:03;4.40;;;1.60;;
21943;SDS011;11136;48.778;9.126;2022-11-15T08:50:29;2.13;;;1.60;;
21943;SDS011;11136;48.778;9.126;2022-11-15T08:52:55;2.53;;;1.52;;
21943;SDS011;11136;48.778;9.126;2022-11-15T08:55:20;3.78;;;1.45;;
21943;SDS011;11136;48.778;9.126;2022-11-15T08:57:46;5.03;;;1.88;;
21943;SDS011;11136;48.778;9.126;2022-11-15T09:00:12;2.63;;;1.55;;
21943;SDS011;11136;48.778;9.126;2022-11-15T09:02:38;2.70;;;1.67;;
21943;SDS011;11136;48.778;9.126;2022-11-15T09:05:05;6.28;;;1.42;;
21943;SDS011;11136;48.778;9.126;2022-11-15T09:07:31;3.13;;;1.55;;
21943;SDS011;11136;48.778;9.126;2022-11-15T09:09:57;2.33;;;1.55;;
21943;SDS011;11136;48.778;9.126;2022-11-15T09:12:23;2.80;;;1.75;;
21943;SDS011;11136;48.778;9.126;2022-11-15T09:14:48;5.13;;;2.00;;
21943;SDS011;11136;48.778;9.126;2022-11-15T09:17:14;3.92;;;1.83;;
21943;SDS011;11136;48.778;9.126;2022-11-15T09:19:40;5.93;;;2.15;;
21943;SDS011;11136;48.778;9.126;2022-11-15T09:22:06;7.10;;;1.67;;
21943;SDS011;11136;48.778;9.126;2022-11-15T09:24:32;2.45;;;1.60;;
21943;SDS011;11136;48.778;9.126;2022-11-15T09:26:58;3.30;;;2.22;;
21943;SDS011;11136;48.778;9.126;2022-11-15T09:29:24;2.63;;;1.50;;
21943;SDS011;11136;48.778;9.126;2022-11-15T09:31:51;3.80;;;2.10;;
21943;SDS011;11136;48.778;9.126;2022-11-15T09:34:17;2.80;;;1.75;;
21943;SDS011;11136;48.778;9.126;2022-11-15T09:36:43;4.00;;;1.70;;
21943;SDS011;11136;48.778;9.126;2022-11-15T09:39:08;5.57;;;1.95;;
21943;SDS011;11136;48.778;9.126;2022-11-15T09:47:32;5.35;;;1.70;;
21943;SDS011;11136;48.778;9.126;2022-11-15T09:50:07;2.33;;;1.70;;
21943;SDS011;11136;48.778;9.126;2022-11-15T09:52:35;6.22;;;2.42;;
21943;SDS011;11136;48.778;9.126;2022-11-15T09:55:04;3.00;;;1.48;;
21943;SDS011;11136;48.778;9.126;2022-11-15T09:57:36;3.25;;;1.58;;
21943;SDS011;11136;48.778;9.126;2022-11-15T10:03:06;4.70;;;1.48;;
21943;SDS011;11136;48.778;9.126;2022-11-15T10:05:45;6.55;;;1.45;;
21943;SDS011;11136;48.778;9.126;2022-11-15T10:10:50;2.90;;;1.45;;
21943;SDS011;11136;48.778;9.126;2022-11-15T10:13:22;4.25;;;1.58;;
21943;SDS011;11136;48.778;9.126;2022-11-15T10:15:57;4.45;;;1.58;;
21943;SDS011;11136;48.778;9.126;2022-11-15T10:18:35;2.65;;;1.30;;
21943;SDS011;11136;48.778;9.126;2022-11-15T10:21:28;2.97;;;1.13;;
21943;SDS011;11136;48.778;9.126;2022-11-15T10:24:20;1.40;;;1.30;;
21943;SDS011;11136;48.778;9.126;2022-11-15T10:26:50;5.88;;;1.48;;
21943;SDS011;11136;48.778;9.126;2022-11-15T10:29:19;1.58;;;1.30;;
21943;SDS011;11136;48.778;9.126;2022-11-15T10:31:45;1.20;;;0.90;;
21943;SDS011;11136;48.778;9.126;2022-11-15T10:34:18;2.03;;;1.10;;
21943;SDS011;11136;48.778;9.126;2022-11-15T10:36:46;4.43;;;0.98;;
21943;SDS011;11136;48.778;9.126;2022-11-15T10:39:21;3.15;;;1.13;;
21943;SDS011;11136;48.778;9.126;2022-11-15T10:41:47;1.95;;;1.25;;
21943;SDS011;11136;48.778;9.126;2022-11-15T10:49:22;2.80;;;1.27;;
21943;SDS011;11136;48.778;9.126;2022-11-15T10:51:54;2.25;;;1.10;;
21943;SDS011;11136;48.778;9.126;2022-11-15T10:56:56;1.45;;;1.10;;
21943;SDS011;11136;48.778;9.126;2022-11-15T10:59:26;4.43;;;1.30;;
21943;SDS011;11136;48.778;9.126;2022-11-15T11:01:55;2.35;;;1.15;;
21943;SDS011;11136;48.778;9.126;2022-11-15T11:04:21;2.13;;;1.10;;
21943;SDS011;11136;48.778;9.126;2022-11-15T11:06:51;3.50;;;1.83;;
21943;SDS011;11136;48.778;9.126;2022-11-15T11:11:49;9.02;;;2.80;;
21943;SDS011;11136;48.778;9.126;2022-11-15T11:16:47;3.05;;;1.23;;
21943;SDS011;11136;48.778;9.126;2022-11-15T11:19:31;9.85;;;2.63;;
21943;SDS011;11136;48.778;9.126;2022-11-15T11:30:14;2.05;;;1.30;;
21943;SDS011;11136;48.778;9.126;2022-11-15T11:35:31;3.35;;;1.63;;
21943;SDS011;11136;48.778;9.126;2022-11-15T11:38:17;4.43;;;1.42;;
21943;SDS011;11136;48.778;9.126;2022-11-15T11:41:03;2.45;;;1.60;;
21943;SDS011;11136;48.778;9.126;2022-11-15T11:49:29;3.15;;;1.17;;
21943;SDS011;11136;48.778;9.126;2022-11-15T11:52:10;2.22;;;1.20;;
21943;SDS011;11136;48.778;9.126;2022-11-15T11:54:48;2.38;;;1.20;;
21943;SDS011;11136;48.778;9.126;2022-11-15T11:57:27;2.55;;;1.20;;
21943;SDS011;11136;48.778;9.126;2022-11-15T12:00:04;3.03;;;1.10;;
21943;SDS011;11136;48.778;9.126;2022-11-15T12:03:11;3.78;;;1.13;;
21943;SDS011;11136;48.778;9.126;2022-11-15T12:10:42;4.85;;;0.98;;
21943;SDS011;11136;48.778;9.126;2022-11-15T12:13:19;2.13;;;1.15;;
21943;SDS011;11136;48.778;9.126;2022-11-15T12:15:52;3.90;;;1.20;;
21943;SDS011;11136;48.778;9.126;2022-11-15T12:18:24;3.10;;;1.60;;
21943;SDS011;11136;48.778;9.126;2022-11-15T12:20:58;3.58;;;1.10;;
21943;SDS011;11136;48.778;9.126;2022-11-15T12:23:30;6.32;;;1.50;;
21943;SDS011;11136;48.778;9.126;2022-11-15T12:26:04;1.48;;;1.38;;
21943;SDS011;11136;48.778;9.126;2022-11-15T12:33:58;4.07;;;1.27;;
21943;SDS011;11136;48.778;9.126;2022-11-15T12:36:30;2.90;;;1.63;;
21943;SDS011;11136;48.778;9.126;2022-11-15T12:39:04;3.45;;;1.10;;
21943;SDS011;11136;48.778;9.126;2022-11-15T12:44:04;5.65;;;1.70;;
21943;SDS011;11136;48.778;9.126;2022-11-15T12:49:10;4.78;;;2.20;;
21943;SDS011;11136;48.778;9.126;2022-11-15T13:17:42;2.47;;;1.40;;
21943;SDS011;11136;48.778;9.126;2022-11-15T13:22:43;2.17;;;1.40;;
21943;SDS011;11136;48.778;9.126;2022-11-15T13:33:05;2.78;;;1.75;;
21943;SDS011;11136;48.778;9.126;2022-11-15T13:35:36;4.07;;;1.90;;
21943;SDS011;11136;48.778;9.126;2022-11-15T13:38:04;7.70;;;2.38;;
21943;SDS011;11136;48.778;9.126;2022-11-15T13:40:37;6.43;;;2.35;;
21943;SDS011;11136;48.778;9.126;2022-11-15T13:43:17;4.25;;;2.47;;
21943;SDS011;11136;48.778;9.126;2022-11-15T13:45:55;5.00;;;2.45;;
21943;SDS011;11136;48.778;9.126;2022-11-15T13:48:34;5.30;;;2.72;;
21943;SDS011;11136;48.778;9.126;2022-11-15T13:51:03;5.47;;;2.70;;
21943;SDS011;11136;48.778;9.126;2022-11-15T13:53:32;5.28;;;2.40;;
21943;SDS011;11136;48.778;9.126;2022-11-15T13:56:00;5.22;;;2.15;;
21943;SDS011;11136;48.778;9.126;2022-11-15T13:58:28;7.05;;;2.40;;
21943;SDS011;11136;48.778;9.126;2022-11-15T14:00:58;4.45;;;2.70;;
21943;SDS011;11136;48.778;9.126;2022-11-15T14:03:30;4.53;;;2.53;;
21943;SDS011;11136;48.778;9.126;2022-11-15T14:06:02;2.92;;;2.13;;
21943;SDS011;11136;48.778;9.126;2022-11-15T14:08:40;11.00;;;2.72;;
21943;SDS011;11136;48.778;9.126;2022-11-15T14:11:15;5.88;;;2.25;;
21943;SDS011;11136;48.778;9.126;2022-11-15T14:13:42;6.05;;;2.70;;
21943;SDS011;11136;48.778;9.126;2022-11-15T14:16:33;10.88;;;2.60;;
21943;SDS011;11136;48.778;9.126;2022-11-15T14:19:02;3.47;;;2.30;;
21943;SDS011;11136;48.778;9.126;2022-11-15T14:21:30;6.93;;;2.30;;
21943;SDS011;11136;48.778;9.126;2022-11-15T14:24:15;6.82;;;3.05;;
21943;SDS011;11136;48.778;9.126;2022-11-15T14:26:41;8.45;;;3.58;;
21943;SDS011;11136;48.778;9.126;2022-11-15T14:29:28;4.20;;;3.00;;
21943;SDS011;11136;48.778;9.126;2022-11-15T14:31:54;9.55;;;3.53;;
21943;SDS011;11136;48.778;9.126;2022-11-15T14:34:37;9.10;;;3.30;;
21943;SDS011;11136;48.778;9.126;2022-11-15T14:37:03;7.35;;;3.10;;
21943;SDS011;11136;48.778;9.126;2022-11-15T14:39:29;5.22;;;3.53;;
21943;SDS011;11136;48.778;9.126;2022-11-15T14:41:55;2.88;;;2.42;;
21943;SDS011;11136;48.778;9.126;2022-11-15T14:44:20;4.28;;;2.60;;
21943;SDS011;11136;48.778;9.126;2022-11-15T14:46:46;8.50;;;2.80;;
21943;SDS011;11136;48.778;9.126;2022-11-15T14:49:20;6.15;;;2.90;;
21943;SDS011;11136;48.778;9.126;2022-11-15T14:51:45;6.28;;;2.42;;
21943;SDS011;11136;48.778;9.126;2022-11-15T14:54:11;7.35;;;3.08;;
21943;SDS011;11136;48.778;9.126;2022-11-15T14:56:36;8.52;;;3.80;;
21943;SDS011;11136;48.778;9.126;2022-11-15T14:59:02;9.35;;;4.07;;
21943;SDS011;11136;48.778;9.126;2022-11-15T15:01:27;7.35;;;3.03;;
21943;SDS011;11136;48.778;9.126;2022-11-15T15:03:53;8.32;;;3.15;;
21943;SDS011;11136;48.778;9.126;2022-11-15T15:06:21;7.70;;;3.28;;
21943;SDS011;11136;48.778;9.126;2022-11-15T15:08:47;4.43;;;2.92;;
21943;SDS011;11136;48.778;9.126;2022-11-15T15:11:18;9.25;;;3.67;;
21943;SDS011;11136;48.778;9.126;2022-11-15T15:13:47;8.70;;;2.97;;
21943;SDS011;11136;48.778;9.126;2022-11-15T15:16:12;8.45;;;2.90;;
21943;SDS011;11136;48.778;9.126;2022-11-15T15:18:38;8.35;;;2.70;;
21943;SDS011;11136;48.778;9.126;2022-11-15T15:21:04;4.53;;;3.20;;
21943;SDS011;11136;48.778;9.126;2022-11-15T15:23:44;4.63;;;3.03;;
21943;SDS011;11136;48.778;9.126;2022-11-15T15:26:09;4.28;;;2.63;;
21943;SDS011;11136;48.778;9.126;2022-11-15T15:28:35;5.53;;;2.90;;
21943;SDS011;11136;48.778;9.126;2022-11-15T15:31:01;7.05;;;3.17;;
21943;SDS011;11136;48.778;9.126;2022-11-15T15:33:26;7.25;;;3.10;;
21943;SDS011;11136;48.778;9.126;2022-11-15T15:35:52;7.18;;;2.70;;
21943;SDS011;11136;48.778;9.126;2022-11-15T15:38:17;6.53;;;3.17;;
21943;SDS011;11136;48.778;9.126;2022-11-15T15:40:43;11.23;;;3.65;;
21943;SDS011;11136;48.778;9.126;2022-11-15T15:43:08;5.68;;;2.72;;
21943;SDS011;11136;48.778;9.126;2022-11-15T15:45:35;7.20;;;3.10;;
21943;SDS011;11136;48.778;9.126;2022-11-15T15:48:04;4.28;;;2.78;;
21943;SDS011;11136;48.778;9.126;2022-11-15T15:50:32;8.63;;;4.22;;
21943;SDS011;11136;48.778;9.126;2022-11-15T15:52:59;8.30;;;3.00;;
21943;SDS011;11136;48.778;9.126;2022-11-15T15:55:26;8.10;;;3.55;;
21943;SDS011;11136;48.778;9.126;2022-11-15T15:57:52;5.47;;;3.30;;
21943;SDS011;11136;48.778;9.126;2022-11-15T16:00:18;5.35;;;3.50;;
21943;SDS011;11136;48.778;9.126;2022-11-15T16:02:45;10.55;;;4.22;;
21943;SDS011;11136;48.778;9.126;2022-11-15T16:05:11;7.50;;;3.17;;
21943;SDS011;11136;48.778;9.126;2022-11-15T16:07:37;8.85;;;3.95;;
21943;SDS011;11136;48.778;9.126;2022-11-15T16:10:15;5.90;;;3.72;;
21943;SDS011;11136;48.778;9.126;2022-11-15T16:12:56;7.45;;;4.40;;
21943;SDS011;11136;48.778;9.126;2022-11-15T16:15:24;6.55;;;3.63;;
21943;SDS011;11136;48.778;9.126;2022-11-15T16:17:52;12.68;;;4.13;;
21943;SDS011;11136;48.778;9.126;2022-11-15T16:20:29;6.90;;;4.32;;
21943;SDS011;11136;48.778;9.126;2022-11-15T16:23:07;10.43;;;4.00;;
21943;SDS011;11136;48.778;9.126;2022-11-15T16:28:11;8.75;;;4.38;;
21943;SDS011;11136;48.778;9.126;2022-11-15T16:30:58;7.13;;;4.28;;
21943;SDS011;11136;48.778;9.126;2022-11-15T16:33:34;7.10;;;3.92;;
21943;SDS011;11136;48.778;9.126;2022-11-15T16:36:01;12.18;;;4.30;;
21943;SDS011;11136;48.778;9.126;2022-11-15T16:38:28;6.95;;;3.85;;
21943;SDS011;11136;48.778;9.126;2022-11-15T16:40:53;10.85;;;5.07;;
21943;SDS011;11136;48.778;9.126;2022-11-15T16:43:19;7.55;;;4.38;;
21943;SDS011;11136;48.778;9.126;2022-11-15T16:45:45;6.95;;;4.00;;
21943;SDS011;11136;48.778;9.126;2022-11-15T16:48:29;12.27;;;4.13;;
21943;SDS011;11136;48.778;9.126;2022-11-15T16:50:55;30.67;;;7.35;;
21943;SDS011;11136;48.778;9.126;2022-11-15T16:53:22;30.02;;;8.65;;
21943;SDS011;11136;48.778;9.126;2022-11-15T16:55:48;66.13;;;15.50;;
21943;SDS011;11136;48.778;9.126;2022-11-15T16:58:13;52.28;;;11.38;;
21943;SDS011;11136;48.778;9.126;2022-11-15T17:00:39;25.40;;;6.95;;
21943;SDS011;11136;48.778;9.126;2022-11-15T17:03:04;11.32;;;4.35;;
21943;SDS011;11136;48.778;9.126;2022-11-15T17:05:31;9.18;;;5.18;;
21943;SDS011;11136;48.778;9.126;2022-11-15T17:07:56;10.73;;;4.93;;
21943;SDS011;11136;48.778;9.126;2022-11-15T17:10:22;12.68;;;4.15;;
21943;SDS011;11136;48.778;9.126;2022-11-15T17:12:49;10.68;;;4.97;;